Time;durP1;ratioP1;P1;durP2;ratioP2;P2;SDS_P1;SDS_P2;PMS_P1;PMS_P2;Temp;Humidity;BMP_temperature;BMP_pressure;BME280_temperature;BME280_humidity;BME280_pressure;Samples;Min_cycle;Max_cycle;Signal;HPM_P1;HPM_P2
2023/09/28 00:02:21;;;;;;;0.60;0.57;;;;;;;15.89;72.69;94882.13;5071536;28;20203;-75
2023/09/28 00:04:48;;;;;;;2.35;1.05;;;;;;;15.92;72.57;94875.97;5071233;28;20207;-75
2023/09/28 00:07:14;;;;;;;0.30;0.30;;;;;;;15.87;73.05;94873.50;5071174;28;20211;-75
2023/09/28 00:09:41;;;;;;;0.20;0.20;;;;;;;15.80;73.59;94874.13;5071206;28;20222;-75
2023/09/28 00:12:08;;;;;;;0.55;0.47;;;;;;;15.78;73.88;94881.09;5070834;28;20238;-75
2023/09/28 00:14:35;;;;;;;0.20;0.20;;;;;;;15.73;74.56;94875.88;5071012;28;20610;-75
2023/09/28 00:17:02;;;;;;;0.45;0.45;;;;;;;15.62;75.50;94865.50;5071077;28;20628;-75
2023/09/28 00:19:29;;;;;;;1.65;0.88;;;;;;;15.50;76.36;94870.22;5070932;28;20222;-75
2023/09/28 00:21:55;;;;;;;0.30;0.30;;;;;;;15.51;76.35;94872.63;5071163;28;20239;-75
2023/09/28 00:24:23;;;;;;;0.20;0.20;;;;;;;15.53;76.32;94867.59;5070808;28;20636;-75
2023/09/28 00:26:48;;;;;;;0.30;0.30;;;;;;;15.48;76.76;94859.66;5071101;28;20203;-76
2023/09/28 00:29:18;;;;;;;0.20;0.20;;;;;;;15.49;77.18;94863.97;5070731;28;20210;-76
2023/09/28 00:31:44;;;;;;;0.57;0.30;;;;;;;15.42;77.26;94863.81;5070866;28;20198;-76
2023/09/28 00:34:11;;;;;;;0.30;0.30;;;;;;;15.45;77.14;94868.56;5070422;28;20297;-76
2023/09/28 00:36:37;;;;;;;0.20;0.20;;;;;;;15.45;77.59;94856.84;5070776;28;20210;-76
2023/09/28 00:39:05;;;;;;;0.55;0.55;;;;;;;15.40;77.93;94860.66;5070446;28;20234;-75
2023/09/28 00:41:31;;;;;;;0.30;0.30;;;;;;;15.29;78.66;94859.59;5070860;28;20583;-78
2023/09/28 00:43:59;;;;;;;0.43;0.43;;;;;;;15.34;78.29;94859.31;5071046;28;20210;-78
2023/09/28 00:46:31;;;;;;;2.70;1.50;;;;;;;15.30;78.48;94866.63;5070540;28;20259;-78
2023/09/28 00:48:59;;;;;;;2.72;1.65;;;;;;;15.40;78.21;94866.09;5070405;28;20237;-78
2023/09/28 00:51:27;;;;;;;2.03;1.48;;;;;;;15.35;78.33;94863.63;5070925;28;20206;-78
2023/09/28 00:53:56;;;;;;;0.30;0.30;;;;;;;15.23;78.78;94856.31;5070556;28;20203;-78
2023/09/28 00:56:23;;;;;;;0.30;0.30;;;;;;;15.05;78.87;94862.44;5070305;28;20206;-78
2023/09/28 00:58:53;;;;;;;0.30;0.30;;;;;;;14.91;79.67;94858.19;5070350;28;20290;-78
2023/09/28 01:01:18;;;;;;;0.30;0.30;;;;;;;14.68;81.42;94861.84;5070193;28;20274;-75
2023/09/28 01:03:48;;;;;;;0.85;0.55;;;;;;;14.58;82.27;94857.69;5070308;28;20297;-75
2023/09/28 01:06:14;;;;;;;0.20;0.20;;;;;;;14.49;82.86;94860.53;5070474;28;20213;-75
2023/09/28 01:08:41;;;;;;;0.55;0.50;;;;;;;14.39;83.26;94865.66;5070414;28;20666;-75
2023/09/28 01:11:07;;;;;;;0.10;0.10;;;;;;;14.40;83.42;94867.28;5070119;28;20234;-75
2023/09/28 01:13:35;;;;;;;0.40;0.40;;;;;;;14.38;83.84;94862.16;5070536;28;20211;-76
2023/09/28 01:16:00;;;;;;;0.57;0.57;;;;;;;14.37;84.36;94865.22;5070169;28;20289;-74
2023/09/28 01:18:29;;;;;;;0.65;0.65;;;;;;;14.36;84.27;94855.44;5070729;28;20611;-74
2023/09/28 01:20:58;;;;;;;0.30;0.30;;;;;;;14.29;85.66;94855.25;5070425;28;20599;-74
2023/09/28 01:23:26;;;;;;;0.50;0.50;;;;;;;14.32;86.11;94858.09;5070349;28;20622;-77
2023/09/28 01:25:52;;;;;;;0.40;0.40;;;;;;;14.30;85.99;94856.84;5070297;28;20203;-77
2023/09/28 01:28:19;;;;;;;1.58;0.95;;;;;;;14.36;86.01;94858.16;5069791;28;20615;-77
2023/09/28 01:30:45;;;;;;;1.02;0.60;;;;;;;14.22;86.31;94856.63;5069987;28;20225;-77
2023/09/28 01:33:12;;;;;;;0.35;0.35;;;;;;;14.19;85.96;94865.50;5070374;28;20199;-77
2023/09/28 01:35:38;;;;;;;0.80;0.80;;;;;;;14.18;85.84;94866.66;5070043;28;20302;-77
2023/09/28 01:38:14;;;;;;;1.10;0.73;;;;;;;14.12;85.78;94867.22;5070013;28;20290;-76
2023/09/28 01:40:43;;;;;;;0.20;0.20;;;;;;;14.11;85.69;94871.88;5070161;28;20671;-77
2023/09/28 01:43:10;;;;;;;0.57;0.30;;;;;;;14.12;84.80;94862.56;5069867;28;20222;-77
2023/09/28 01:45:36;;;;;;;0.20;0.20;;;;;;;14.17;85.30;94869.72;5069706;28;20253;-77
2023/09/28 01:48:04;;;;;;;0.80;0.43;;;;;;;14.18;86.18;94861.19;5070010;28;20229;-77
2023/09/28 01:50:30;;;;;;;1.40;1.27;;;;;;;14.14;86.91;94864.94;5070108;28;20631;-77
2023/09/28 01:52:57;;;;;;;2.05;1.42;;;;;;;14.05;87.20;94856.91;5070163;28;20663;-77
2023/09/28 01:55:23;;;;;;;0.20;0.20;;;;;;;14.04;87.26;94866.22;5073748;28;20207;-77
2023/09/28 01:57:51;;;;;;;0.30;0.30;;;;;;;14.01;87.45;94860.66;5073647;28;20228;-77
2023/09/28 02:00:19;;;;;;;0.35;0.35;;;;;;;13.98;87.80;94861.34;5073592;28;20623;-77
2023/09/28 02:02:47;;;;;;;0.73;0.32;;;;;;;13.93;88.43;94854.22;5070934;28;20203;-76
2023/09/28 02:05:17;;;;;;;0.30;0.30;;;;;;;13.85;88.88;94868.72;5072793;28;20203;-78
2023/09/28 02:07:44;;;;;;;0.40;0.40;;;;;;;13.95;88.32;94862.81;5080206;28;20210;-76
2023/09/28 02:10:10;;;;;;;0.70;0.70;;;;;;;13.87;88.29;94855.56;5071692;28;20221;-76
2023/09/28 02:12:40;;;;;;;1.63;0.90;;;;;;;13.84;87.83;94861.69;5070328;28;20204;-76
2023/09/28 02:15:09;;;;;;;0.20;0.20;;;;;;;13.78;88.18;94863.06;5072635;28;20211;-76
2023/09/28 02:17:36;;;;;;;1.77;1.25;;;;;;;13.80;88.26;94860.81;5073473;28;20268;-78
2023/09/28 02:20:08;;;;;;;0.28;0.28;;;;;;;13.71;88.68;94871.00;5070431;28;20218;-75
2023/09/28 02:22:35;;;;;;;0.32;0.32;;;;;;;13.75;88.25;94869.19;5075704;28;20209;-77
2023/09/28 02:25:02;;;;;;;0.20;0.20;;;;;;;13.81;88.46;94870.53;5076812;28;20632;-77
2023/09/28 02:27:29;;;;;;;0.57;0.57;;;;;;;13.79;88.71;94875.56;5071489;28;20571;-77
2023/09/28 02:29:55;;;;;;;0.32;0.32;;;;;;;13.73;88.56;94860.56;5066870;28;20312;-76
2023/09/28 02:32:23;;;;;;;0.57;0.35;;;;;;;13.75;89.12;94878.16;5067148;28;20225;-76
2023/09/28 02:34:49;;;;;;;0.15;0.15;;;;;;;13.70;89.48;94872.13;5065193;28;20576;-77
2023/09/28 02:37:16;;;;;;;0.20;0.20;;;;;;;13.49;90.50;94877.72;5063568;28;20203;-76
2023/09/28 02:39:43;;;;;;;0.20;0.20;;;;;;;13.56;90.72;94882.56;5063232;28;20808;-77
2023/09/28 02:42:09;;;;;;;0.20;0.20;;;;;;;13.51;91.45;94876.25;5062197;28;20203;-76
2023/09/28 02:44:35;;;;;;;0.30;0.30;;;;;;;13.26;94.66;94890.94;5062000;28;20298;-76
2023/09/28 02:47:05;;;;;;;0.35;0.35;;;;;;;13.30;94.86;94897.28;5063780;28;20683;-76
2023/09/28 02:49:33;;;;;;;0.30;0.30;;;;;;;13.35;94.14;94894.38;5061242;28;20200;-76
2023/09/28 02:52:00;;;;;;;0.20;0.20;;;;;;;13.32;94.17;94889.59;5066224;28;20215;-76
2023/09/28 02:54:26;;;;;;;0.30;0.30;;;;;;;13.38;94.93;94899.13;5072988;28;20264;-76
2023/09/28 02:56:53;;;;;;;0.20;0.20;;;;;;;13.36;97.22;94890.50;5073082;28;20655;-78
2023/09/28 02:59:22;;;;;;;0.40;0.40;;;;;;;13.21;97.44;94893.88;5072686;28;20203;-77
2023/09/28 03:01:49;;;;;;;0.30;0.30;;;;;;;13.19;98.40;94901.59;5072881;28;20719;-77
2023/09/28 03:04:16;;;;;;;0.68;0.57;;;;;;;13.20;98.18;94897.75;5066537;28;20208;-77
2023/09/28 03:06:45;;;;;;;0.60;0.60;;;;;;;13.34;98.26;94897.41;5071234;28;20286;-77
2023/09/28 03:09:12;;;;;;;1.92;1.45;;;;;;;13.36;99.50;94895.97;5072438;28;20238;-77
2023/09/28 03:11:40;;;;;;;2.33;1.58;;;;;;;13.27;100.00;94892.53;5071762;28;20238;-77
2023/09/28 03:14:06;;;;;;;2.78;1.75;;;;;;;13.30;100.00;94897.28;5072027;28;20207;-77
2023/09/28 03:16:33;;;;;;;1.85;1.65;;;;;;;13.29;100.00;94890.25;5072369;28;20203;-77
2023/09/28 03:19:00;;;;;;;2.65;1.70;;;;;;;13.33;100.00;94884.94;5071985;28;20301;-77
2023/09/28 03:21:29;;;;;;;2.17;1.38;;;;;;;13.20;100.00;94892.28;5075903;28;20258;-77
2023/09/28 03:23:57;;;;;;;1.85;1.33;;;;;;;13.41;100.00;94882.09;5083178;28;20207;-77
2023/09/28 03:26:24;;;;;;;3.85;2.13;;;;;;;13.39;99.94;94884.38;5071637;28;20214;-77
2023/09/28 03:28:50;;;;;;;6.03;2.97;;;;;;;13.38;99.68;94882.81;5071735;28;20203;-76
2023/09/28 03:31:16;;;;;;;5.10;2.65;;;;;;;13.31;100.00;94892.66;5071562;28;20206;-77
2023/09/28 03:33:42;;;;;;;5.97;3.40;;;;;;;13.38;100.00;94888.25;5071682;28;20203;-77
2023/09/28 03:36:09;;;;;;;4.95;2.83;;;;;;;13.44;100.00;94881.44;5071719;28;20280;-77
2023/09/28 03:38:36;;;;;;;5.13;2.13;;;;;;;13.57;99.33;94890.41;5075296;28;20252;-77
2023/09/28 03:41:06;;;;;;;0.40;0.40;;;;;;;13.39;100.00;94881.66;5074837;28;20381;-76
2023/09/28 03:43:33;;;;;;;0.50;0.50;;;;;;;13.43;100.00;94896.19;5059312;28;20199;-77
2023/09/28 03:46:00;;;;;;;0.85;0.85;;;;;;;13.38;100.00;94888.25;5062298;28;20210;-77
2023/09/28 03:48:27;;;;;;;0.75;0.75;;;;;;;13.41;100.00;94890.28;5062709;28;20265;-76
2023/09/28 03:50:53;;;;;;;0.25;0.25;;;;;;;13.55;99.94;94891.88;5063759;28;20256;-75
2023/09/28 03:53:20;;;;;;;0.17;0.17;;;;;;;13.61;100.00;94895.97;5064308;28;20238;-75
2023/09/28 03:55:49;;;;;;;0.20;0.20;;;;;;;13.62;98.88;94897.56;5067412;28;21530;-75
2023/09/28 03:58:17;;;;;;;0.38;0.38;;;;;;;13.61;98.89;94893.25;5070063;28;20233;-75
2023/09/28 04:00:44;;;;;;;0.20;0.20;;;;;;;13.57;98.18;94895.06;5069224;28;20223;-76
2023/09/28 04:03:11;;;;;;;0.45;0.45;;;;;;;13.56;98.02;94898.91;5070034;28;20214;-76
2023/09/28 04:05:38;;;;;;;3.72;1.10;;;;;;;13.59;97.21;94903.69;5068838;28;20272;-77
2023/09/28 04:08:06;;;;;;;0.63;0.63;;;;;;;13.60;96.21;94891.66;5070332;28;20199;-74
2023/09/28 04:10:33;;;;;;;0.20;0.20;;;;;;;13.66;95.03;94885.66;5070233;28;20265;-76
2023/09/28 04:13:01;;;;;;;0.38;0.38;;;;;;;13.71;95.83;94898.22;5070802;28;20249;-76
2023/09/28 04:15:30;;;;;;;0.30;0.30;;;;;;;13.71;95.46;94890.06;5071124;28;20281;-76
2023/09/28 04:17:56;;;;;;;1.13;0.80;;;;;;;13.77;94.16;94891.44;5070626;28;20199;-76
2023/09/28 04:20:23;;;;;;;0.40;0.40;;;;;;;13.83;93.05;94892.78;5070696;28;20231;-76
2023/09/28 04:22:50;;;;;;;0.63;0.52;;;;;;;13.90;91.68;94884.84;5071385;28;20293;-76
2023/09/28 04:25:18;;;;;;;0.55;0.55;;;;;;;14.00;90.58;94889.81;5070780;28;20213;-76
2023/09/28 04:27:45;;;;;;;0.30;0.30;;;;;;;14.09;90.22;94895.94;5071167;28;20572;-76
2023/09/28 04:30:12;;;;;;;0.60;0.60;;;;;;;14.12;90.00;94895.25;5070998;28;20569;-76
2023/09/28 04:32:40;;;;;;;0.20;0.20;;;;;;;14.26;89.63;94894.88;5070940;28;20214;-76
2023/09/28 04:35:10;;;;;;;0.43;0.43;;;;;;;14.36;89.18;94899.06;5070746;28;20609;-75
2023/09/28 04:37:37;;;;;;;0.20;0.20;;;;;;;14.52;87.48;94891.78;5070917;28;20207;-76
2023/09/28 04:40:05;;;;;;;0.30;0.25;;;;;;;14.67;87.31;94903.88;5071013;28;20230;-76
2023/09/28 04:42:34;;;;;;;0.22;0.22;;;;;;;14.78;86.32;94894.84;5070925;28;20198;-76
2023/09/28 04:45:01;;;;;;;0.63;0.63;;;;;;;14.97;85.38;94896.16;5070916;28;20203;-76
2023/09/28 04:47:28;;;;;;;1.48;1.23;;;;;;;15.06;84.95;94907.69;5070630;28;20566;-76
2023/09/28 04:49:56;;;;;;;0.80;0.60;;;;;;;15.22;84.53;94908.50;5070889;28;20249;-76
2023/09/28 04:52:23;;;;;;;0.82;0.82;;;;;;;15.39;83.62;94910.94;5070608;28;20563;-76
2023/09/28 04:54:51;;;;;;;0.70;0.70;;;;;;;15.47;82.79;94915.41;5070577;28;20203;-76
2023/09/28 04:57:20;;;;;;;2.55;0.73;;;;;;;15.54;82.61;94914.81;5070538;28;20206;-76
2023/09/28 04:59:46;;;;;;;1.30;0.52;;;;;;;15.68;82.18;94908.94;5070897;28;20210;-76
2023/09/28 05:02:13;;;;;;;0.40;0.40;;;;;;;15.81;82.82;94913.16;5070323;28;20301;-75
2023/09/28 05:04:40;;;;;;;0.40;0.35;;;;;;;15.96;82.00;94909.63;5065933;28;20203;-74
2023/09/28 05:07:08;;;;;;;0.35;0.35;;;;;;;16.06;81.09;94925.47;5070370;28;20655;-73
2023/09/28 05:09:35;;;;;;;0.47;0.47;;;;;;;16.00;81.10;94918.69;5070069;28;20621;-74
2023/09/28 05:12:02;;;;;;;0.20;0.20;;;;;;;15.90;81.67;94911.03;5070315;28;20234;-75
2023/09/28 05:14:29;;;;;;;0.40;0.40;;;;;;;15.83;81.88;94916.34;5070024;28;20678;-75
2023/09/28 05:16:56;;;;;;;0.30;0.30;;;;;;;15.83;81.09;94930.00;5070322;28;20207;-74
2023/09/28 05:19:25;;;;;;;0.38;0.35;;;;;;;16.00;80.20;94926.88;5069825;28;20207;-75
2023/09/28 05:21:52;;;;;;;0.68;0.68;;;;;;;16.13;79.32;94925.63;5069855;28;20215;-73
2023/09/28 05:24:20;;;;;;;1.20;1.10;;;;;;;16.29;78.68;94920.94;5069996;28;20306;-75
2023/09/28 05:26:46;;;;;;;0.43;0.43;;;;;;;16.34;77.75;94920.66;5070216;28;20210;-75
2023/09/28 05:29:13;;;;;;;0.55;0.55;;;;;;;16.37;77.14;94923.84;5073533;28;20213;-75
2023/09/28 05:31:40;;;;;;;0.45;0.45;;;;;;;16.48;76.81;94919.38;5073980;28;20221;-74
2023/09/28 05:34:07;;;;;;;1.10;0.73;;;;;;;16.48;75.32;94924.84;5074126;28;20595;-73
2023/09/28 05:36:34;;;;;;;1.38;0.70;;;;;;;16.70;76.28;94924.97;5073226;28;20215;-76
2023/09/28 05:39:03;;;;;;;0.50;0.50;;;;;;;16.72;73.75;94932.84;5073976;28;20237;-73
2023/09/28 05:41:31;;;;;;;0.98;0.90;;;;;;;17.00;72.79;94925.22;5073693;28;20218;-76
2023/09/28 05:43:57;;;;;;;0.85;0.50;;;;;;;17.05;71.09;94938.63;5073995;28;20206;-76
2023/09/28 05:46:24;;;;;;;1.33;0.77;;;;;;;17.33;73.05;94932.91;5073682;28;20210;-75
2023/09/28 05:48:51;;;;;;;0.57;0.50;;;;;;;17.46;70.43;94930.78;5074018;28;20741;-75
2023/09/28 05:51:18;;;;;;;0.40;0.40;;;;;;;17.52;69.16;94934.78;5073487;28;20203;-76
2023/09/28 05:53:44;;;;;;;0.50;0.50;;;;;;;17.53;72.96;94928.16;5073550;28;20206;-77
2023/09/28 05:56:11;;;;;;;1.20;1.02;;;;;;;17.66;69.92;94934.28;5073456;28;20257;-75
2023/09/28 05:58:39;;;;;;;0.55;0.55;;;;;;;17.87;71.23;94937.41;5073818;28;20248;-75
2023/09/28 06:01:07;;;;;;;2.05;1.20;;;;;;;17.92;69.22;94936.28;5073444;28;20312;-75
2023/09/28 06:03:35;;;;;;;2.10;1.40;;;;;;;18.06;68.74;94931.03;5073602;28;20203;-75
2023/09/28 06:06:13;;;;;;;3.08;1.63;;;;;;;18.01;68.73;94934.09;5073517;28;20574;-75
2023/09/28 06:08:40;;;;;;;1.63;1.20;;;;;;;17.95;66.71;94930.06;5073424;28;20210;-76
2023/09/28 06:11:07;;;;;;;3.08;1.30;;;;;;;17.71;64.37;94929.28;5073107;28;20330;-74
2023/09/28 06:13:34;;;;;;;1.38;1.08;;;;;;;17.70;65.05;94929.66;5073157;28;20210;-76
2023/09/28 06:16:02;;;;;;;0.80;0.60;;;;;;;17.75;66.23;94934.84;5073422;28;20690;-76
2023/09/28 06:18:29;;;;;;;2.42;0.52;;;;;;;17.93;64.45;94940.59;5073013;28;20207;-76
2023/09/28 06:20:55;;;;;;;2.60;1.08;;;;;;;17.95;64.11;94930.06;5073035;28;20226;-74
2023/09/28 06:23:22;;;;;;;0.57;0.57;;;;;;;18.14;64.01;94938.22;5072929;28;20211;-76
2023/09/28 06:25:49;;;;;;;0.50;0.50;;;;;;;18.05;64.18;94943.94;5073429;28;20569;-75
2023/09/28 06:28:16;;;;;;;0.32;0.32;;;;;;;18.08;64.29;94937.72;5072819;28;20207;-76
2023/09/28 06:30:42;;;;;;;0.47;0.47;;;;;;;18.20;63.45;94936.75;5072652;28;20207;-76
2023/09/28 06:33:11;;;;;;;1.15;1.00;;;;;;;18.27;63.38;94936.88;5073305;28;20210;-75
2023/09/28 06:35:37;;;;;;;0.40;0.40;;;;;;;18.55;62.98;94930.22;5072859;28;20206;-75
2023/09/28 06:38:05;;;;;;;0.43;0.43;;;;;;;18.68;62.55;94928.84;5072886;28;20645;-74
2023/09/28 06:40:31;;;;;;;0.10;0.10;;;;;;;18.88;62.24;94924.78;5071451;28;20234;-74
2023/09/28 06:42:58;;;;;;;1.83;1.48;;;;;;;18.87;60.83;94934.19;5072542;28;20253;-75
2023/09/28 06:45:25;;;;;;;0.38;0.38;;;;;;;19.00;60.58;94938.28;5072688;28;20584;-73
2023/09/28 06:47:54;;;;;;;0.20;0.20;;;;;;;19.30;59.66;94938.25;5072541;28;20202;-73
2023/09/28 06:50:23;;;;;;;0.40;0.40;;;;;;;18.89;60.02;94934.59;5072039;28;20215;-76
2023/09/28 06:52:51;;;;;;;3.13;1.52;;;;;;;18.87;61.03;94942.41;5072755;28;20215;-75
2023/09/28 06:55:18;;;;;;;0.30;0.30;;;;;;;19.04;60.54;94946.56;5072265;28;20242;-75
2023/09/28 06:57:46;;;;;;;1.52;1.13;;;;;;;18.80;60.04;94939.59;5072660;28;20215;-73
2023/09/28 07:00:16;;;;;;;0.30;0.30;;;;;;;19.00;60.82;94952.00;5072083;28;20199;-74
2023/09/28 07:02:47;;;;;;;1.20;1.10;;;;;;;19.00;60.39;94935.53;5072661;28;20218;-73
2023/09/28 07:05:14;;;;;;;1.30;1.20;;;;;;;19.08;60.58;94953.69;5072207;28;20192;-74
2023/09/28 07:07:43;;;;;;;0.60;0.57;;;;;;;18.93;60.60;94951.94;5072902;28;20541;-73
2023/09/28 07:10:11;;;;;;;0.50;0.50;;;;;;;19.06;60.04;94953.28;5072222;28;20334;-74
2023/09/28 07:12:38;;;;;;;0.30;0.30;;;;;;;19.12;60.21;94957.28;5072600;28;20286;-74
2023/09/28 07:15:06;;;;;;;0.30;0.30;;;;;;;19.11;60.25;94952.94;5072182;28;20290;-73
2023/09/28 07:17:33;;;;;;;1.52;1.33;;;;;;;19.13;60.22;94958.06;5071917;28;20202;-75
2023/09/28 07:20:00;;;;;;;2.50;1.38;;;;;;;19.15;59.50;94959.25;5071469;28;20203;-73
2023/09/28 07:22:27;;;;;;;0.88;0.75;;;;;;;19.11;60.15;94966.69;5071005;28;20672;-75
2023/09/28 07:24:56;;;;;;;0.28;0.28;;;;;;;19.07;60.66;94963.09;5072294;28;20563;-74
2023/09/28 07:27:22;;;;;;;0.20;0.20;;;;;;;19.16;59.94;94960.84;5072114;28;20214;-75
2023/09/28 07:29:50;;;;;;;0.50;0.50;;;;;;;19.51;59.20;94948.72;5071649;28;20268;-74
2023/09/28 07:32:17;;;;;;;0.45;0.35;;;;;;;19.59;58.43;94944.88;5071682;28;20207;-73
2023/09/28 07:34:43;;;;;;;1.45;1.13;;;;;;;20.10;57.60;94952.41;5071812;28;20214;-73
2023/09/28 07:37:10;;;;;;;4.38;1.65;;;;;;;20.07;57.34;94944.94;5072206;28;20225;-73
2023/09/28 07:39:37;;;;;;;0.77;0.70;;;;;;;20.32;57.41;94951.41;5072273;28;20203;-75
2023/09/28 07:42:08;;;;;;;4.10;0.73;;;;;;;20.56;56.17;94942.56;5070968;28;20230;-75
2023/09/28 07:44:34;;;;;;;0.40;0.40;;;;;;;20.78;55.99;94948.19;5071353;28;20187;-75
2023/09/28 07:47:03;;;;;;;0.50;0.50;;;;;;;20.76;56.61;94954.09;5071148;28;20211;-75
2023/09/28 07:49:29;;;;;;;0.38;0.30;;;;;;;20.98;54.75;94952.25;5071218;28;20325;-75
2023/09/28 07:51:56;;;;;;;0.70;0.70;;;;;;;21.02;54.51;94947.56;5070581;28;20260;-74
2023/09/28 07:54:23;;;;;;;1.75;0.90;;;;;;;21.03;53.42;94942.84;5071543;28;20571;-76
2023/09/28 07:56:50;;;;;;;0.47;0.32;;;;;;;21.10;53.92;94940.88;5071464;28;20215;-74
2023/09/28 07:59:18;;;;;;;0.30;0.30;;;;;;;20.84;54.38;94947.47;5071047;28;20199;-75
2023/09/28 08:01:44;;;;;;;1.30;1.10;;;;;;;21.10;53.99;94938.13;5071187;28;20226;-74
2023/09/28 08:04:11;;;;;;;1.33;0.95;;;;;;;21.08;55.05;94946.00;5071341;28;20199;-75
2023/09/28 08:06:39;;;;;;;0.95;0.88;;;;;;;21.66;53.49;94942.28;5071011;28;20256;-75
2023/09/28 08:09:13;;;;;;;1.50;0.90;;;;;;;21.76;52.48;94933.25;5070850;28;20214;-74
2023/09/28 08:11:40;;;;;;;2.25;0.98;;;;;;;22.31;51.52;94941.19;5071159;28;20646;-74
2023/09/28 08:14:06;;;;;;;2.00;1.25;;;;;;;21.92;51.42;94941.94;5071402;28;20532;-73
2023/09/28 08:16:36;;;;;;;2.55;1.13;;;;;;;22.24;52.10;94938.44;5071002;28;20597;-74
2023/09/28 08:19:04;;;;;;;1.48;1.17;;;;;;;22.50;51.00;94935.28;5070895;28;20199;-75
2023/09/28 08:21:31;;;;;;;1.23;0.90;;;;;;;22.56;51.23;94933.66;5070317;28;20227;-75
2023/09/28 08:23:58;;;;;;;2.05;1.30;;;;;;;22.81;50.59;94935.66;5071048;28;20211;-75
2023/09/28 08:26:25;;;;;;;1.33;1.10;;;;;;;23.03;49.50;94932.41;5070401;28;20203;-75
2023/09/28 08:28:52;;;;;;;2.90;1.70;;;;;;;22.35;50.47;94933.69;5070788;28;20210;-74
2023/09/28 08:31:19;;;;;;;1.95;0.98;;;;;;;21.88;51.85;94932.84;5070466;28;20199;-74
2023/09/28 08:33:48;;;;;;;1.40;0.75;;;;;;;22.17;52.09;94928.19;5071176;28;20649;-75
2023/09/28 08:36:15;;;;;;;1.83;1.15;;;;;;;22.16;52.12;94936.84;5070262;28;20299;-76
2023/09/28 08:38:42;;;;;;;2.67;1.10;;;;;;;22.15;52.02;94935.28;5070613;28;20206;-74
2023/09/28 08:41:10;;;;;;;1.88;1.10;;;;;;;22.22;52.04;94929.75;5070482;28;20226;-73
2023/09/28 08:43:44;;;;;;;2.20;1.00;;;;;;;22.09;51.62;94936.88;5070738;28;20556;-75
2023/09/28 08:46:14;;;;;;;2.38;1.35;;;;;;;21.86;52.48;94935.25;5070854;28;20523;-75
2023/09/28 08:48:45;;;;;;;1.08;0.88;;;;;;;21.90;52.88;94929.72;5070488;28;20599;-75
2023/09/28 08:51:13;;;;;;;1.65;1.40;;;;;;;21.95;52.39;94927.38;5070722;28;20278;-75
2023/09/28 08:53:43;;;;;;;1.52;1.23;;;;;;;22.23;51.96;94925.81;5070635;28;20642;-74
2023/09/28 08:56:10;;;;;;;1.40;1.02;;;;;;;21.72;52.97;94924.19;5070129;28;20211;-74
2023/09/28 08:58:38;;;;;;;0.68;0.40;;;;;;;21.37;54.38;94926.84;5070094;28;20203;-74
2023/09/28 09:01:06;;;;;;;1.23;0.82;;;;;;;;;;5070117;28;20207;-73
2023/09/28 09:03:33;;;;;;;1.20;1.00;;;;;;;21.71;53.41;94928.13;5069901;28;20242;-74
2023/09/28 09:06:00;;;;;;;1.08;0.65;;;;;;;21.67;53.74;94923.78;5070452;28;20556;-74
2023/09/28 09:08:31;;;;;;;1.30;1.17;;;;;;;21.73;53.35;94919.47;5069869;28;20640;-74
2023/09/28 09:10:57;;;;;;;3.05;0.95;;;;;;;22.07;53.57;94919.91;5069821;28;20320;-74
2023/09/28 09:13:24;;;;;;;1.20;0.93;;;;;;;22.18;52.32;94920.69;5070476;28;20663;-73
2023/09/28 09:15:52;;;;;;;0.95;0.68;;;;;;;22.36;52.29;94918.72;5070142;28;20199;-75
2023/09/28 09:18:19;;;;;;;0.85;0.80;;;;;;;22.30;51.53;94915.56;5070054;28;20209;-74
2023/09/28 09:20:47;;;;;;;1.45;0.95;;;;;;;22.20;52.79;94921.88;5070516;28;20260;-75
2023/09/28 09:23:14;;;;;;;0.93;0.75;;;;;;;22.28;52.97;94919.88;5068648;28;20223;-75
2023/09/28 09:25:44;;;;;;;1.73;0.93;;;;;;;22.33;51.61;94911.22;5069881;28;20221;-74
2023/09/28 09:28:12;;;;;;;1.70;0.90;;;;;;;22.58;51.77;94909.22;5070005;28;20214;-74
2023/09/28 09:30:39;;;;;;;1.65;1.30;;;;;;;22.67;51.12;94911.56;5069625;28;20323;-74
2023/09/28 09:33:08;;;;;;;1.52;0.98;;;;;;;23.05;50.78;94909.91;5070200;28;20209;-74
2023/09/28 09:35:35;;;;;;;1.02;0.93;;;;;;;23.36;50.15;94909.00;5069820;28;20239;-72
2023/09/28 09:38:02;;;;;;;1.20;0.80;;;;;;;23.32;49.40;94915.72;5070145;28;20207;-74
2023/09/28 09:40:30;;;;;;;1.13;0.93;;;;;;;23.14;50.05;94906.72;5069942;28;20544;-75
2023/09/28 09:43:07;;;;;;;1.13;0.70;;;;;;;22.57;50.33;94907.63;5070197;28;20222;-73
2023/09/28 09:45:37;;;;;;;1.38;1.15;;;;;;;22.52;50.97;94910.81;5070133;28;20226;-75
2023/09/28 09:48:06;;;;;;;0.90;0.80;;;;;;;22.62;51.23;94907.25;5070226;28;20209;-74
2023/09/28 09:50:35;;;;;;;1.27;0.93;;;;;;;22.34;51.14;94904.50;5069812;28;20202;-74
2023/09/28 09:53:04;;;;;;;1.92;1.00;;;;;;;22.60;51.01;94901.31;5070343;28;20567;-75
2023/09/28 09:55:31;;;;;;;1.88;1.10;;;;;;;22.62;51.27;94893.44;5069372;28;20284;-74
2023/09/28 09:58:02;;;;;;;1.73;1.00;;;;;;;23.37;49.38;94888.41;5069955;28;20203;-75
2023/09/28 10:00:32;;;;;;;1.15;0.93;;;;;;;23.53;48.47;94887.19;5069411;28;20226;-74
2023/09/28 10:03:00;;;;;;;1.15;0.70;;;;;;;23.56;48.80;94889.16;5070126;28;20261;-74
2023/09/28 10:05:28;;;;;;;1.20;1.10;;;;;;;24.03;48.76;94885.66;5069564;28;20631;-73
2023/09/28 10:07:57;;;;;;;1.00;0.90;;;;;;;24.16;47.65;94874.09;5069764;28;20215;-72
2023/09/28 10:10:27;;;;;;;2.58;1.10;;;;;;;23.67;49.12;94871.28;5069492;28;20489;-72
2023/09/28 10:12:55;;;;;;;0.90;0.80;;;;;;;23.92;48.57;94873.88;5069994;28;20230;-73
2023/09/28 10:15:23;;;;;;;1.98;0.82;;;;;;;23.81;48.08;94886.22;5071370;28;20690;-72
2023/09/28 10:17:51;;;;;;;1.00;0.90;;;;;;;24.26;47.98;94878.78;5073126;28;20206;-73
2023/09/28 10:20:19;;;;;;;0.85;0.75;;;;;;;24.61;47.79;94881.19;5073031;28;20254;-72
2023/09/28 10:22:47;;;;;;;1.10;1.00;;;;;;;24.30;48.60;94887.84;5073136;28;20226;-72
2023/09/28 10:25:16;;;;;;;1.75;1.20;;;;;;;23.96;48.65;94894.00;5073276;28;20611;-72
2023/09/28 10:27:44;;;;;;;1.25;1.02;;;;;;;23.76;49.43;94884.69;5073084;28;20207;-72
2023/09/28 10:30:19;;;;;;;1.27;0.95;;;;;;;23.24;52.04;94887.31;5071901;28;20203;-73
2023/09/28 10:32:46;;;;;;;1.27;0.98;;;;;;;22.55;53.76;94885.16;5073288;28;20587;-72
2023/09/28 10:35:26;;;;;;;1.13;0.90;;;;;;;22.27;55.33;94882.47;5073084;28;20294;-72
2023/09/28 10:38:21;;;;;;;1.75;1.25;;;;;;;22.34;54.91;94882.44;5072905;28;20244;-72
2023/09/28 10:41:05;;;;;;;1.10;1.00;;;;;;;22.36;54.65;94873.75;5072848;28;20206;-72
2023/09/28 10:43:34;;;;;;;0.70;0.70;;;;;;;22.56;53.54;94878.44;5072576;28;20277;-73
2023/09/28 10:46:03;;;;;;;1.70;1.10;;;;;;;22.98;53.98;94871.22;5072988;28;20298;-74
2023/09/28 10:48:33;;;;;;;0.93;0.90;;;;;;;23.21;53.44;94874.31;5072392;28;20214;-74
2023/09/28 10:51:03;;;;;;;1.38;0.95;;;;;;;23.13;53.20;94878.28;5072967;28;20256;-74
2023/09/28 10:53:29;;;;;;;1.75;1.00;;;;;;;23.11;52.67;94875.13;5072578;28;20418;-74
2023/09/28 10:55:57;;;;;;;0.88;0.85;;;;;;;23.25;52.50;94871.50;5072842;28;20214;-74
2023/09/28 10:58:24;;;;;;;0.98;0.85;;;;;;;23.76;51.48;94864.53;5072542;28;20529;-73
2023/09/28 11:00:51;;;;;;;1.20;0.73;;;;;;;23.68;51.75;94863.78;5072251;28;20271;-74
2023/09/28 11:03:18;;;;;;;1.08;0.98;;;;;;;23.97;50.50;94858.81;5072800;28;20266;-73
2023/09/28 11:05:45;;;;;;;0.77;0.77;;;;;;;24.20;50.66;94860.97;5072862;28;20203;-76
2023/09/28 11:08:14;;;;;;;1.58;1.00;;;;;;;24.13;49.35;94861.06;5069928;28;20211;-75
2023/09/28 11:10:42;;;;;;;1.48;0.77;;;;;;;23.94;50.37;94859.63;5069767;28;20230;-76
2023/09/28 11:13:09;;;;;;;1.50;1.10;;;;;;;23.83;50.49;94859.72;5084171;28;20197;-77
2023/09/28 11:15:35;;;;;;;1.33;1.00;;;;;;;24.45;49.51;94856.06;5073234;28;20211;-77
2023/09/28 11:18:02;;;;;;;0.73;0.70;;;;;;;24.49;49.27;94856.00;5075845;28;20210;-79
2023/09/28 11:20:31;;;;;;;1.70;0.90;;;;;;;24.45;49.40;94853.28;5075399;28;20674;-77
2023/09/28 11:22:58;;;;;;;1.23;1.00;;;;;;;24.53;48.81;94857.53;5073142;28;20257;-75
2023/09/28 11:25:26;;;;;;;1.58;1.20;;;;;;;24.16;49.46;94860.25;5069014;28;20210;-78
2023/09/28 11:27:54;;;;;;;2.08;0.98;;;;;;;24.20;50.00;94849.91;5072015;28;20252;-78
2023/09/28 11:30:21;;;;;;;1.10;0.80;;;;;;;24.55;49.57;94846.84;5076125;28;20681;-78
2023/09/28 11:32:51;;;;;;;1.98;1.25;;;;;;;23.82;50.12;94847.06;5071941;28;20203;-78
2023/09/28 11:35:23;;;;;;;1.90;1.35;;;;;;;23.66;50.71;94852.31;5075191;28;20207;-78
2023/09/28 11:37:51;;;;;;;1.10;1.00;;;;;;;23.59;51.40;94850.41;5070561;28;20195;-75